createdAt,value
2018-08-06T00:00:31.201Z,100981.98
2018-08-06T00:02:59.662Z,100980.36
2018-08-06T00:05:28.050Z,100984.38
2018-08-06T00:07:56.421Z,100985.40
2018-08-06T00:10:26.105Z,100986.89
2018-08-06T00:12:54.675Z,100982.35
2018-08-06T00:15:23.039Z,100984.94
2018-08-06T00:17:51.551Z,100977.68
2018-08-06T00:20:19.946Z,100978.47
2018-08-06T00:22:48.357Z,100975.92
2018-08-06T00:25:17.564Z,100969.86
2018-08-06T00:27:46.542Z,100972.83
2018-08-06T00:30:16.758Z,100971.34
2018-08-06T00:32:46.061Z,100968.52
2018-08-06T00:35:15.002Z,100972.45
2018-08-06T00:37:43.459Z,100967.34
2018-08-06T00:40:13.456Z,100962.72
2018-08-06T00:42:42.534Z,100965.08
2018-08-06T00:45:13.139Z,100965.30
2018-08-06T00:47:41.732Z,100958.00
2018-08-06T00:50:10.670Z,100960.41
2018-08-06T00:52:40.557Z,100964.30
2018-08-06T00:55:13.247Z,100966.56
2018-08-06T00:57:41.712Z,100963.86
2018-08-06T01:00:13.088Z,100966.87
2018-08-06T01:02:41.639Z,100969.08
2018-08-06T01:05:11.351Z,100963.70
2018-08-06T01:07:40.431Z,100960.62
2018-08-06T01:10:12.103Z,100956.19
2018-08-06T01:12:41.113Z,100954.73
2018-08-06T01:15:11.175Z,100957.91
2018-08-06T01:17:39.582Z,100963.66
2018-08-06T01:20:09.667Z,100958.58
2018-08-06T01:22:38.316Z,100953.02
2018-08-06T01:25:06.770Z,100953.57
2018-08-06T01:27:35.717Z,100954.91
2018-08-06T01:30:04.390Z,100955.91
2018-08-06T01:32:32.739Z,100956.03
2018-08-06T01:35:01.045Z,100947.95
2018-08-06T01:37:29.414Z,100948.45
2018-08-06T01:39:57.761Z,100948.95
2018-08-06T01:42:26.140Z,100942.98
2018-08-06T01:44:54.554Z,100942.31
2018-08-06T01:47:22.997Z,100945.94
2018-08-06T01:49:51.506Z,100938.14
2018-08-06T01:52:19.834Z,100936.55
2018-08-06T01:54:48.207Z,100936.71
2018-08-06T01:57:16.568Z,100932.88
2018-08-06T01:59:44.900Z,100929.00
2018-08-06T02:02:13.283Z,100921.03
2018-08-06T02:04:41.697Z,100927.07
2018-08-06T02:07:10.156Z,100925.53
2018-08-06T02:09:38.858Z,100924.30
2018-08-06T02:12:08.390Z,100917.55
2018-08-06T02:14:36.950Z,100920.22
2018-08-06T02:17:06.430Z,100920.29
2018-08-06T02:19:34.906Z,100916.05
2018-08-06T02:22:03.255Z,100917.48
2018-08-06T02:24:31.666Z,100914.91
2018-08-06T02:27:00.116Z,100910.95
2018-08-06T02:29:28.509Z,100910.65
2018-08-06T02:31:58.014Z,100917.61
2018-08-06T02:34:26.410Z,100917.38
2018-08-06T02:36:54.850Z,100920.83
2018-08-06T02:39:23.196Z,100912.78
2018-08-06T02:41:51.634Z,100908.99
2018-08-06T02:44:20.032Z,100912.94
2018-08-06T02:46:48.352Z,100907.47
2018-08-06T02:49:16.804Z,100903.33
2018-08-06T02:51:45.302Z,100912.41
2018-08-06T02:54:13.632Z,100906.27
2018-08-06T02:56:42.375Z,100906.37
2018-08-06T02:59:10.831Z,100905.27
2018-08-06T03:01:39.235Z,100907.84
2018-08-06T03:04:07.736Z,100903.59
2018-08-06T03:06:37.104Z,100913.12
2018-08-06T03:09:09.744Z,100908.45
2018-08-06T03:11:38.212Z,100909.44
2018-08-06T03:14:06.638Z,100905.15
2018-08-06T03:16:35.887Z,100907.87
2018-08-06T03:19:04.382Z,100903.55
2018-08-06T03:21:32.821Z,100906.17
2018-08-06T03:24:01.209Z,100906.77
2018-08-06T03:26:29.649Z,100907.19
2018-08-06T03:28:58.072Z,100907.19
2018-08-06T03:31:26.483Z,100911.55
2018-08-06T03:33:54.920Z,100912.45
2018-08-06T03:36:23.360Z,100911.23
2018-08-06T03:38:51.753Z,100907.97
2018-08-06T03:41:20.171Z,100908.95
2018-08-06T03:43:48.540Z,100905.59
2018-08-06T03:46:18.799Z,100907.38
2018-08-06T03:48:47.135Z,100906.55
2018-08-06T03:51:16.064Z,100912.68
2018-08-06T03:53:44.872Z,100914.45
2018-08-06T03:56:19.498Z,100916.09
2018-08-06T03:58:50.053Z,100915.47
2018-08-06T04:01:18.618Z,100914.56
2018-08-06T04:03:48.529Z,100927.84
2018-08-06T04:06:21.089Z,100924.08
2018-08-06T04:08:49.429Z,100924.14
2018-08-06T04:11:17.744Z,100926.72
2018-08-06T04:13:46.504Z,100925.44
2018-08-06T04:16:16.224Z,100927.48
2018-08-06T04:18:44.628Z,100920.20
2018-08-06T04:21:13.623Z,100921.73
2018-08-06T04:23:42.222Z,100919.57
2018-08-06T04:26:11.590Z,100922.67
2018-08-06T04:28:40.039Z,100923.02
2018-08-06T04:31:08.410Z,100919.16
2018-08-06T04:33:36.926Z,100917.97
2018-08-06T04:36:05.423Z,100917.87
2018-08-06T04:38:33.878Z,100927.31
2018-08-06T04:41:02.239Z,100922.16
2018-08-06T04:43:30.673Z,100919.89
2018-08-06T04:45:59.258Z,100919.02
2018-08-06T04:48:27.749Z,100918.98
2018-08-06T04:50:56.109Z,100916.83
2018-08-06T04:53:27.372Z,100919.23
2018-08-06T04:55:57.539Z,100922.89
2018-08-06T04:58:25.929Z,100921.91
2018-08-06T05:00:55.040Z,100917.55
2018-08-06T05:03:23.449Z,100920.41
2018-08-06T05:05:51.829Z,100925.05
2018-08-06T05:08:20.354Z,100924.56
2018-08-06T05:10:48.759Z,100928.32
2018-08-06T05:13:17.286Z,100918.80
2018-08-06T05:15:45.705Z,100914.44
2018-08-06T05:18:14.046Z,100924.65
2018-08-06T05:20:42.449Z,100921.13
2018-08-06T05:23:11.078Z,100923.06
2018-08-06T05:25:40.454Z,100919.81
2018-08-06T05:28:08.928Z,100927.52
2018-08-06T05:30:37.270Z,100931.69
2018-08-06T05:33:05.647Z,100932.98
2018-08-06T05:35:34.128Z,100937.16
2018-08-06T05:38:02.545Z,100938.23
2018-08-06T05:40:30.940Z,100934.69
2018-08-06T05:42:59.401Z,100937.47
2018-08-06T05:45:27.739Z,100932.39
2018-08-06T05:47:56.152Z,100936.38
2018-08-06T05:50:24.587Z,100939.39
2018-08-06T05:52:52.981Z,100938.77
2018-08-06T05:55:21.396Z,100942.39
2018-08-06T05:57:49.771Z,100944.47
2018-08-06T06:00:19.241Z,100939.88
2018-08-06T06:02:48.903Z,100937.59
2018-08-06T06:05:17.805Z,100942.64
2018-08-06T06:07:46.210Z,100942.48
2018-08-06T06:10:15.840Z,100940.35
2018-08-06T06:12:44.271Z,100941.48
2018-08-06T06:15:14.879Z,100930.19
2018-08-06T06:17:43.927Z,100938.10
2018-08-06T06:20:12.370Z,100939.77
2018-08-06T06:22:40.822Z,100929.13
2018-08-06T06:25:11.512Z,100936.09
2018-08-06T06:27:39.957Z,100934.68
2018-08-06T06:30:10.849Z,100940.30
2018-08-06T06:32:39.292Z,100945.05
2018-08-06T06:35:07.691Z,100947.78
2018-08-06T06:37:36.081Z,100943.38
2018-08-06T06:40:05.041Z,100949.25
2018-08-06T06:42:33.411Z,100946.97
2018-08-06T06:45:01.828Z,100947.59
2018-08-06T06:47:30.199Z,100947.00
2018-08-06T06:49:58.532Z,100947.68
2018-08-06T06:52:26.980Z,100943.87
2018-08-06T06:54:55.333Z,100938.27
2018-08-06T06:57:23.805Z,100943.29
2018-08-06T06:59:52.278Z,100945.30
2018-08-06T07:02:20.602Z,100933.98
2018-08-06T07:04:49.035Z,100935.93
2018-08-06T07:07:17.443Z,100932.33
2018-08-06T07:09:45.843Z,100935.42
2018-08-06T07:12:14.275Z,100935.59
2018-08-06T07:14:42.635Z,100933.67
2018-08-06T07:17:11.116Z,100932.00
2018-08-06T07:19:39.498Z,100938.63
2018-08-06T07:22:07.949Z,100933.50
2018-08-06T07:24:36.486Z,100930.78
2018-08-06T07:27:04.946Z,100933.09
2018-08-06T07:29:33.545Z,100935.23
2018-08-06T07:32:01.936Z,100932.25
2018-08-06T07:34:30.387Z,100932.76
2018-08-06T07:36:58.944Z,100931.48
2018-08-06T07:39:27.386Z,100928.59
2018-08-06T07:41:55.756Z,100927.16
2018-08-06T07:44:24.216Z,100920.70
2018-08-06T07:46:52.624Z,100918.45
2018-08-06T07:49:23.611Z,100916.72
2018-08-06T07:51:52.096Z,100913.91
2018-08-06T07:54:20.694Z,100916.16
2018-08-06T07:56:49.387Z,100907.10
2018-08-06T07:59:17.824Z,100907.95
2018-08-06T08:01:46.374Z,100908.89
2018-08-06T08:04:15.136Z,100907.98
2018-08-06T08:06:43.876Z,100899.12
2018-08-06T08:09:12.996Z,100895.72
2018-08-06T08:11:41.485Z,100893.88
2018-08-06T08:14:14.555Z,100894.25
2018-08-06T08:16:42.976Z,100885.70
2018-08-06T08:19:11.632Z,100893.64
2018-08-06T08:21:40.033Z,100888.28
2018-08-06T08:24:08.536Z,100878.25
2018-08-06T08:26:36.904Z,100882.17
2018-08-06T08:29:05.441Z,100872.30
2018-08-06T08:31:34.367Z,100874.31
2018-08-06T08:34:02.858Z,100873.23
2018-08-06T08:36:33.034Z,100870.70
2018-08-06T08:39:01.507Z,100863.78
2018-08-06T08:41:29.993Z,100860.19
2018-08-06T08:43:58.412Z,100859.17
2018-08-06T08:46:26.919Z,100856.98
2018-08-06T08:48:55.555Z,100856.47
2018-08-06T08:51:24.013Z,100852.95
2018-08-06T08:53:53.616Z,100845.52
2018-08-06T08:56:22.615Z,100849.98
2018-08-06T08:58:51.229Z,100843.13
2018-08-06T09:01:19.599Z,100844.37
2018-08-06T09:03:48.905Z,100841.00
2018-08-06T09:06:17.296Z,100835.78
2018-08-06T09:08:45.934Z,100832.67
2018-08-06T09:11:14.543Z,100837.33
2018-08-06T09:13:42.922Z,100835.30
2018-08-06T09:16:11.388Z,100832.14
2018-08-06T09:18:39.870Z,100838.20
2018-08-06T09:21:09.025Z,100831.03
2018-08-06T09:23:37.359Z,100841.02
2018-08-06T09:26:05.781Z,100835.45
2018-08-06T09:28:34.183Z,100831.31
2018-08-06T09:31:02.651Z,100833.56
2018-08-06T09:33:31.533Z,100831.11
2018-08-06T09:35:59.907Z,100830.42
2018-08-06T09:38:28.252Z,100829.08
2018-08-06T09:40:56.682Z,100830.11
2018-08-06T09:43:25.131Z,100826.29
2018-08-06T09:45:53.509Z,100824.52
2018-08-06T09:48:21.970Z,100821.81
2018-08-06T09:50:51.865Z,100822.89
2018-08-06T09:53:20.368Z,100815.01
2018-08-06T09:55:49.153Z,100816.33
2018-08-06T09:58:17.663Z,100817.41
2018-08-06T10:00:51.168Z,100818.14
2018-08-06T10:03:22.578Z,100811.57
2018-08-06T10:05:51.033Z,100812.38
2018-08-06T10:08:19.640Z,100803.83
2018-08-06T10:10:48.041Z,100799.16
2018-08-06T10:13:16.466Z,100799.41
2018-08-06T10:15:45.999Z,100797.86
2018-08-06T10:18:14.667Z,100801.06
2018-08-06T10:20:43.420Z,100800.23
2018-08-06T10:23:12.098Z,100789.84
2018-08-06T10:25:41.902Z,100787.93
2018-08-06T10:28:10.487Z,100773.33
2018-08-06T10:30:38.962Z,100773.22
2018-08-06T10:33:08.775Z,100769.58
2018-08-06T10:35:37.573Z,100770.98
2018-08-06T10:38:06.261Z,100764.80
2018-08-06T10:40:34.933Z,100765.60
2018-08-06T10:43:03.552Z,100754.30
2018-08-06T10:45:32.193Z,100749.27
2018-08-06T10:48:00.799Z,100748.18
2018-08-06T10:50:29.354Z,100751.67
2018-08-06T10:52:57.760Z,100741.25
2018-08-06T10:55:26.340Z,100742.50
2018-08-06T10:57:54.908Z,100744.77
2018-08-06T11:00:24.202Z,100723.78
2018-08-06T11:02:52.915Z,100720.95
2018-08-06T11:05:21.673Z,100709.23
2018-08-06T11:07:50.147Z,100710.04
2018-08-06T11:10:20.908Z,100712.72
2018-08-06T11:12:49.473Z,100703.69
2018-08-06T11:15:26.152Z,100704.00
2018-08-06T11:17:54.758Z,100698.03
2018-08-06T11:20:23.889Z,100694.22
2018-08-06T11:22:52.522Z,100692.47
2018-08-06T11:25:22.464Z,100685.79
2018-08-06T11:27:51.001Z,100682.31
2018-08-06T11:30:20.943Z,100675.91
2018-08-06T11:32:50.338Z,100665.22
2018-08-06T11:35:18.941Z,100665.14
2018-08-06T11:37:47.355Z,100660.23
2018-08-06T11:40:16.468Z,100659.64
2018-08-06T11:42:45.639Z,100660.20
2018-08-06T11:45:16.809Z,100654.84
2018-08-06T11:47:45.365Z,100665.09
2018-08-06T11:50:13.780Z,100666.44
2018-08-06T11:52:42.479Z,100652.09
2018-08-06T11:55:11.238Z,100654.16
2018-08-06T11:57:39.740Z,100643.98
2018-08-06T12:00:18.507Z,100634.87
2018-08-06T12:02:47.104Z,100638.88
2018-08-06T12:05:15.536Z,100638.55
2018-08-06T12:07:44.007Z,100631.06
2018-08-06T12:10:14.895Z,100641.67
2018-08-06T12:12:44.436Z,100626.66
2018-08-06T12:15:12.838Z,100621.64
2018-08-06T12:17:41.812Z,100634.34
2018-08-06T12:20:12.669Z,100620.11
2018-08-06T12:22:42.260Z,100625.09
2018-08-06T12:25:11.782Z,100611.13
2018-08-06T12:27:40.209Z,100609.48
2018-08-06T12:30:11.492Z,100600.95
2018-08-06T12:32:39.864Z,100604.28
2018-08-06T12:35:08.429Z,100602.02
2018-08-06T12:37:36.829Z,100587.67
2018-08-06T12:40:07.761Z,100585.03
2018-08-06T12:42:36.207Z,100587.92
2018-08-06T12:45:05.298Z,100581.75
2018-08-06T12:47:33.676Z,100576.09
2018-08-06T12:50:02.914Z,100578.03
2018-08-06T12:52:31.489Z,100571.91
2018-08-06T12:54:59.785Z,100581.33
2018-08-06T12:57:28.445Z,100581.00
2018-08-06T12:59:56.908Z,100571.61
2018-08-06T13:02:25.448Z,100573.82
2018-08-06T13:04:53.960Z,100562.95
2018-08-06T13:07:22.278Z,100561.60
2018-08-06T13:09:50.711Z,100564.62
2018-08-06T13:12:19.132Z,100568.66
2018-08-06T13:14:47.573Z,100559.92
2018-08-06T13:17:17.483Z,100562.92
2018-08-06T13:19:45.924Z,100547.38
2018-08-06T13:22:14.484Z,100561.98
2018-08-06T13:24:42.856Z,100553.58
2018-08-06T13:27:11.809Z,100552.07
2018-08-06T13:29:40.236Z,100543.09
2018-08-06T13:32:08.715Z,100541.17
2018-08-06T13:34:37.397Z,100545.59
2018-08-06T13:37:05.932Z,100541.39
2018-08-06T13:39:34.273Z,100538.56
2018-08-06T13:42:02.598Z,100539.88
2018-08-06T13:44:31.088Z,100528.70
2018-08-06T13:46:59.590Z,100522.79
2018-08-06T13:49:27.885Z,100522.34
2018-08-06T13:51:56.273Z,100521.73
2018-08-06T13:54:24.672Z,100520.39
2018-08-06T13:56:53.021Z,100524.73
2018-08-06T13:59:24.082Z,100513.45
2018-08-06T14:01:52.358Z,100516.11
2018-08-06T14:04:21.953Z,100509.47
2018-08-06T14:06:50.359Z,100505.06
2018-08-06T14:09:18.845Z,100496.66
2018-08-06T14:11:47.200Z,100497.03
2018-08-06T14:14:15.559Z,100496.12
2018-08-06T14:16:43.947Z,100486.93
2018-08-06T14:19:12.534Z,100489.92
2018-08-06T14:21:40.884Z,100481.20
2018-08-06T14:24:09.368Z,100481.19
2018-08-06T14:26:39.232Z,100479.66
2018-08-06T14:29:07.710Z,100469.01
2018-08-06T14:31:36.350Z,100467.14
2018-08-06T14:34:04.772Z,100467.52
2018-08-06T14:36:33.111Z,100466.81
2018-08-06T14:39:01.826Z,100467.70
2018-08-06T14:41:30.145Z,100464.83
2018-08-06T14:43:58.509Z,100465.82
2018-08-06T14:46:26.792Z,100453.73
2018-08-06T14:48:55.219Z,100443.40
2018-08-06T14:51:23.576Z,100441.58
2018-08-06T14:53:52.844Z,100439.97
2018-08-06T14:56:21.308Z,100444.65
2018-08-06T14:58:49.904Z,100442.24
2018-08-06T15:01:18.384Z,100439.61
2018-08-06T15:03:46.896Z,100436.16
2018-08-06T15:06:15.719Z,100425.70
2018-08-06T15:08:44.020Z,100427.12
2018-08-06T15:11:12.476Z,100425.53
2018-08-06T15:13:40.941Z,100426.93
2018-08-06T15:16:09.432Z,100417.05
2018-08-06T15:18:37.949Z,100418.33
2018-08-06T15:21:06.569Z,100422.44
2018-08-06T15:23:34.994Z,100419.02
2018-08-06T15:26:04.220Z,100413.73
2018-08-06T15:28:32.688Z,100410.99
2018-08-06T15:31:01.171Z,100411.09
2018-08-06T15:33:29.485Z,100405.56
2018-08-06T15:35:57.804Z,100394.16
2018-08-06T15:38:26.244Z,100395.61
2018-08-06T15:40:54.901Z,100395.08
2018-08-06T15:43:23.452Z,100397.44
2018-08-06T15:45:51.814Z,100394.30
2018-08-06T15:48:21.186Z,100394.51
2018-08-06T15:50:49.660Z,100390.91
2018-08-06T15:53:17.954Z,100394.22
2018-08-06T15:55:46.263Z,100386.34
2018-08-06T15:58:14.714Z,100385.34
2018-08-06T16:00:43.113Z,100388.59
2018-08-06T16:03:11.518Z,100383.70
2018-08-06T16:05:39.825Z,100370.68
2018-08-06T16:08:08.205Z,100376.64
2018-08-06T16:10:36.539Z,100367.44
2018-08-06T16:13:04.915Z,100366.33
2018-08-06T16:15:33.272Z,100366.22
2018-08-06T16:18:01.650Z,100363.58
2018-08-06T16:20:30.004Z,100363.61
2018-08-06T16:22:58.618Z,100362.48
2018-08-06T16:25:26.948Z,100356.09
2018-08-06T16:27:55.276Z,100356.98
2018-08-06T16:30:25.109Z,100360.13
2018-08-06T16:32:54.121Z,100351.95
2018-08-06T16:35:23.918Z,100353.92
2018-08-06T16:37:54.805Z,100344.36
2018-08-06T16:40:23.113Z,100341.87
2018-08-06T16:42:51.849Z,100333.91
2018-08-06T16:45:20.328Z,100332.74
2018-08-06T16:47:48.821Z,100340.05
2018-08-06T16:50:17.869Z,100332.74
2018-08-06T16:52:46.469Z,100331.45
2018-08-06T16:55:14.846Z,100330.31
2018-08-06T16:57:43.234Z,100332.35
2018-08-06T17:00:16.328Z,100323.22
2018-08-06T17:02:45.004Z,100321.80
2018-08-06T17:05:14.001Z,100327.14
2018-08-06T17:07:43.568Z,100320.27
2018-08-06T17:10:14.932Z,100319.44
2018-08-06T17:12:44.885Z,100317.09
2018-08-06T17:15:14.743Z,100318.59
2018-08-06T17:17:43.358Z,100316.55
2018-08-06T17:20:15.775Z,100322.53
2018-08-06T17:22:45.548Z,100315.82
2018-08-06T17:25:14.144Z,100321.45
2018-08-06T17:27:42.835Z,100314.98
2018-08-06T17:30:12.233Z,100316.95
2018-08-06T17:32:40.594Z,100313.77
2018-08-06T17:35:10.505Z,100310.00
2018-08-06T17:37:38.913Z,100304.05
2018-08-06T17:40:13.853Z,100304.37
2018-08-06T17:42:42.280Z,100305.27
2018-08-06T17:45:14.037Z,100300.59
2018-08-06T17:47:42.445Z,100300.91
2018-08-06T17:50:13.067Z,100305.25
2018-08-06T17:52:41.578Z,100300.75
2018-08-06T17:55:09.989Z,100300.70
2018-08-06T17:57:38.465Z,100302.15
2018-08-06T18:00:08.153Z,100310.23
2018-08-06T18:02:38.090Z,100309.47
2018-08-06T18:05:08.236Z,100307.73
2018-08-06T18:07:36.623Z,100297.87
2018-08-06T18:10:06.412Z,100302.45
2018-08-06T18:12:34.790Z,100301.40
2018-08-06T18:15:03.885Z,100297.45
2018-08-06T18:17:32.802Z,100295.98
2018-08-06T18:20:01.124Z,100296.86
2018-08-06T18:22:29.401Z,100299.98
2018-08-06T18:24:57.895Z,100298.70
2018-08-06T18:27:27.109Z,100296.67
2018-08-06T18:29:55.765Z,100296.67
2018-08-06T18:32:24.125Z,100297.05
2018-08-06T18:34:52.462Z,100300.84
2018-08-06T18:37:21.528Z,100298.17
2018-08-06T18:39:49.860Z,100303.52
2018-08-06T18:42:19.041Z,100299.65
2018-08-06T18:44:48.393Z,100297.88
2018-08-06T18:47:18.668Z,100299.08
2018-08-06T18:49:47.073Z,100291.41
2018-08-06T18:52:15.444Z,100299.58
2018-08-06T18:54:43.987Z,100301.87
2018-08-06T18:57:13.560Z,100298.06
2018-08-06T18:59:42.927Z,100300.98
2018-08-06T19:02:12.220Z,100305.41
2018-08-06T19:04:41.605Z,100302.35
2018-08-06T19:07:10.893Z,100296.02
2018-08-06T19:09:40.062Z,100301.87
2018-08-06T19:12:14.477Z,100301.67
2018-08-06T19:14:43.861Z,100302.84
2018-08-06T19:17:13.094Z,100297.52
2018-08-06T19:19:42.396Z,100296.69
2018-08-06T19:22:11.386Z,100299.88
2018-08-06T19:24:45.661Z,100301.14
2018-08-06T19:27:14.796Z,100304.44
2018-08-06T19:29:43.222Z,100304.69
2018-08-06T19:32:13.221Z,100302.34
2018-08-06T19:34:42.528Z,100296.11
2018-08-06T19:37:16.691Z,100298.48
2018-08-06T19:39:46.812Z,100300.53
2018-08-06T19:42:16.047Z,100297.36
2018-08-06T19:44:45.036Z,100297.70
2018-08-06T19:47:17.191Z,100296.20
2018-08-06T19:49:51.564Z,100294.56
2018-08-06T19:52:21.049Z,100295.58
2018-08-06T19:54:50.259Z,100297.09
2018-08-06T19:57:19.310Z,100293.16
2018-08-06T19:59:47.692Z,100293.45
2018-08-06T20:02:16.989Z,100296.95
2018-08-06T20:04:46.072Z,100292.77
2018-08-06T20:07:15.302Z,100292.91
2018-08-06T20:09:44.124Z,100294.37
2018-08-06T20:12:13.156Z,100296.28
2018-08-06T20:14:42.071Z,100291.47
2018-08-06T20:17:11.128Z,100293.89
2018-08-06T20:19:40.250Z,100291.61
2018-08-06T20:22:15.825Z,100292.70
2018-08-06T20:24:47.200Z,100292.33
2018-08-06T20:27:17.789Z,100296.01
2018-08-06T20:29:47.166Z,100292.92
2018-08-06T20:32:16.212Z,100296.15
2018-08-06T20:34:46.052Z,100296.05
2018-08-06T20:37:15.296Z,100289.16
2018-08-06T20:39:43.781Z,100295.67
2018-08-06T20:42:13.148Z,100302.36
2018-08-06T20:44:42.314Z,100301.87
2018-08-06T20:47:11.477Z,100293.83
2018-08-06T20:49:40.618Z,100293.83
2018-08-06T20:52:09.948Z,100294.19
2018-08-06T20:54:38.588Z,100296.95
2018-08-06T20:57:08.084Z,100295.27
2018-08-06T20:59:37.370Z,100292.42
2018-08-06T21:02:06.619Z,100298.98
2018-08-06T21:04:35.691Z,100296.84
2018-08-06T21:07:05.991Z,100295.15
2018-08-06T21:09:36.048Z,100293.00
2018-08-06T21:12:06.374Z,100297.52
2018-08-06T21:14:35.433Z,100297.04
2018-08-06T21:17:04.813Z,100301.89
2018-08-06T21:19:34.240Z,100296.43
2018-08-06T21:22:03.928Z,100297.48
2018-08-06T21:24:33.366Z,100299.99
2018-08-06T21:27:02.421Z,100296.55
2018-08-06T21:29:32.921Z,100302.97
2018-08-06T21:32:06.061Z,100298.09
2018-08-06T21:34:35.306Z,100295.81
2018-08-06T21:37:04.510Z,100303.98
2018-08-06T21:39:34.509Z,100303.55
2018-08-06T21:42:03.857Z,100297.02
2018-08-06T21:44:33.260Z,100296.41
2018-08-06T21:47:04.432Z,100294.48
2018-08-06T21:49:33.718Z,100293.42
2018-08-06T21:52:03.222Z,100298.31
2018-08-06T21:54:35.848Z,100298.05
2018-08-06T21:57:05.269Z,100286.39
2018-08-06T21:59:35.009Z,100291.27
2018-08-06T22:02:03.420Z,100290.28
2018-08-06T22:04:33.224Z,100289.56
2018-08-06T22:07:03.585Z,100296.82
2018-08-06T22:09:33.057Z,100292.31
2018-08-06T22:12:04.075Z,100293.67
2018-08-06T22:14:33.157Z,100287.73
2018-08-06T22:17:02.391Z,100283.09
2018-08-06T22:19:31.291Z,100288.79
2018-08-06T22:22:00.396Z,100292.16
2018-08-06T22:24:29.576Z,100291.37
2018-08-06T22:26:58.829Z,100292.09
2018-08-06T22:29:28.180Z,100288.17
2018-08-06T22:31:56.612Z,100284.02
2018-08-06T22:34:24.953Z,100285.70
2018-08-06T22:36:53.373Z,100283.43
2018-08-06T22:39:21.770Z,100281.64
2018-08-06T22:41:50.153Z,100281.98
2018-08-06T22:44:18.544Z,100279.58
2018-08-06T22:46:46.913Z,100279.48
2018-08-06T22:49:15.294Z,100274.70
2018-08-06T22:51:43.675Z,100274.36
2018-08-06T22:54:12.046Z,100274.28
2018-08-06T22:56:40.342Z,100270.47
2018-08-06T22:59:08.673Z,100264.41
2018-08-06T23:01:37.849Z,100265.97
2018-08-06T23:04:06.286Z,100267.62
2018-08-06T23:06:34.672Z,100257.37
2018-08-06T23:09:03.076Z,100261.94
2018-08-06T23:11:31.419Z,100256.92
2018-08-06T23:13:59.736Z,100255.97
2018-08-06T23:16:28.084Z,100255.55
2018-08-06T23:18:56.534Z,100254.59
2018-08-06T23:21:24.886Z,100255.28
2018-08-06T23:23:53.191Z,100245.17
2018-08-06T23:26:21.861Z,100246.34
2018-08-06T23:28:50.183Z,100248.30
2018-08-06T23:31:18.518Z,100241.88
2018-08-06T23:33:46.909Z,100243.14
2018-08-06T23:36:15.269Z,100240.98
2018-08-06T23:38:43.619Z,100239.30
2018-08-06T23:41:12.032Z,100238.65
2018-08-06T23:43:40.345Z,100230.43
2018-08-06T23:46:08.700Z,100229.98
2018-08-06T23:48:37.079Z,100226.17
2018-08-06T23:51:05.480Z,100236.23
2018-08-06T23:53:33.926Z,100228.27
2018-08-06T23:56:02.261Z,100233.63
2018-08-06T23:59:01.288Z,100226.52
